Time;durP1;ratioP1;P1;durP2;ratioP2;P2;SDS_P1;SDS_P2;PMS_P1;PMS_P2;Temp;Humidity;BMP_temperature;BMP_pressure;BME280_temperature;BME280_humidity;BME280_pressure;Samples;Min_cycle;Max_cycle;Signal;HPM_P1;HPM_P2
2021/12/29 00:00:23;;;;;;;7.18;5.00;;;6.30;99.90;;;;;;5134457;27;20198;-55
2021/12/29 00:02:51;;;;;;;7.45;6.03;;;6.30;99.90;;;;;;5134639;27;20190;-55
2021/12/29 00:05:18;;;;;;;10.43;6.47;;;6.30;99.90;;;;;;5134759;27;20226;-55
2021/12/29 00:07:45;;;;;;;8.63;5.68;;;6.30;99.90;;;;;;5134510;27;20563;-55
2021/12/29 00:10:15;;;;;;;9.75;6.38;;;6.30;99.90;;;;;;5134621;27;20206;-55
2021/12/29 00:12:46;;;;;;;9.02;6.28;;;6.30;99.90;;;;;;5134636;28;20199;-55
2021/12/29 00:15:16;;;;;;;9.73;6.20;;;6.40;99.90;;;;;;5134575;28;20228;-56
2021/12/29 00:17:45;;;;;;;9.30;6.30;;;6.40;99.90;;;;;;5134680;28;20198;-55
2021/12/29 00:20:14;;;;;;;8.30;7.03;;;6.50;99.90;;;;;;5134233;28;20198;-55
2021/12/29 00:22:42;;;;;;;9.13;6.78;;;6.50;99.90;;;;;;5134293;28;20199;-55
2021/12/29 00:25:10;;;;;;;9.10;6.75;;;6.50;99.90;;;;;;5136745;27;20223;-55
2021/12/29 00:27:38;;;;;;;8.15;6.60;;;6.50;99.90;;;;;;5138500;27;20202;-55
2021/12/29 00:30:08;;;;;;;12.15;7.35;;;6.40;99.90;;;;;;5138505;27;20203;-55
2021/12/29 00:32:35;;;;;;;10.93;7.68;;;6.40;99.90;;;;;;5138507;27;20199;-55
2021/12/29 00:35:04;;;;;;;16.17;8.43;;;6.40;99.90;;;;;;5137937;27;20219;-55
2021/12/29 00:37:31;;;;;;;10.00;8.57;;;6.40;99.90;;;;;;5138039;27;20199;-55
2021/12/29 00:39:58;;;;;;;10.50;8.25;;;6.40;99.90;;;;;;5137970;27;20207;-56
2021/12/29 00:42:25;;;;;;;10.48;9.35;;;6.50;99.90;;;;;;5138127;27;20207;-57
2021/12/29 00:44:53;;;;;;;12.77;8.82;;;6.50;99.90;;;;;;5137996;27;20211;-54
2021/12/29 00:47:20;;;;;;;14.52;10.38;;;6.50;99.90;;;;;;5138147;27;20674;-55
2021/12/29 00:49:47;;;;;;;12.02;9.82;;;6.60;99.90;;;;;;5138212;27;20210;-55
2021/12/29 00:52:16;;;;;;;13.02;10.98;;;6.60;99.90;;;;;;5138010;27;20203;-55
2021/12/29 00:54:45;;;;;;;16.42;10.18;;;6.60;99.90;;;;;;5137776;27;20222;-56
2021/12/29 00:57:12;;;;;;;12.10;10.18;;;6.60;99.90;;;;;;5138081;27;20199;-56
2021/12/29 00:59:40;;;;;;;11.68;10.45;;;6.60;99.90;;;;;;5138291;27;20199;-55
2021/12/29 01:02:07;;;;;;;14.73;10.60;;;6.60;99.90;;;;;;5138453;27;20575;-55
2021/12/29 01:04:35;;;;;;;11.63;10.00;;;6.60;99.90;;;;;;5137825;27;20251;-55
2021/12/29 01:07:02;;;;;;;13.60;10.27;;;6.70;99.90;;;;;;5137538;27;20199;-56
2021/12/29 01:09:31;;;;;;;14.30;10.55;;;6.70;99.90;;;;;;5137550;27;20206;-55
2021/12/29 01:11:59;;;;;;;14.43;11.18;;;6.70;99.90;;;;;;5137775;27;20213;-55
2021/12/29 01:14:30;;;;;;;14.77;10.98;;;6.70;99.90;;;;;;5137267;27;20222;-55
2021/12/29 01:16:58;;;;;;;16.95;11.48;;;6.70;99.90;;;;;;5137625;27;20284;-57
2021/12/29 01:19:27;;;;;;;17.40;11.98;;;6.80;99.90;;;;;;5137176;27;20199;-56
2021/12/29 01:21:57;;;;;;;18.40;12.02;;;6.80;99.90;;;;;;5137391;27;20207;-55
2021/12/29 01:24:26;;;;;;;14.95;11.70;;;6.80;99.90;;;;;;5136882;27;20211;-56
2021/12/29 01:26:54;;;;;;;16.30;11.13;;;6.80;99.90;;;;;;5137378;27;20544;-55
2021/12/29 01:29:22;;;;;;;15.55;11.40;;;6.80;99.90;;;;;;5137035;27;20574;-56
2021/12/29 01:31:49;;;;;;;17.30;11.52;;;6.80;99.90;;;;;;5137171;27;20226;-56
2021/12/29 01:34:17;;;;;;;13.25;10.73;;;6.80;99.90;;;;;;5136705;27;20591;-55
2021/12/29 01:36:44;;;;;;;16.88;13.93;;;6.70;99.90;;;;;;5136331;27;20199;-56
2021/12/29 01:39:13;;;;;;;14.35;11.70;;;6.80;99.90;;;;;;5137257;27;20199;-55
2021/12/29 01:41:41;;;;;;;17.23;12.15;;;6.70;99.90;;;;;;5136716;27;20199;-56
2021/12/29 01:44:10;;;;;;;17.55;11.82;;;6.70;99.90;;;;;;5136976;27;20558;-56
2021/12/29 01:46:37;;;;;;;17.42;12.20;;;6.70;99.90;;;;;;5136934;27;20202;-55
2021/12/29 01:49:05;;;;;;;15.07;11.70;;;6.70;99.90;;;;;;5136675;27;20231;-56
2021/12/29 01:51:32;;;;;;;17.10;12.27;;;6.80;99.90;;;;;;5137231;27;20199;-55
2021/12/29 01:54:14;;;;;;;16.67;12.20;;;6.70;99.90;;;;;;5136818;27;20702;-55
2021/12/29 01:56:45;;;;;;;13.43;11.57;;;6.70;99.90;;;;;;5136993;27;20187;-56
2021/12/29 01:59:15;;;;;;;14.57;12.07;;;6.70;99.90;;;;;;5136538;27;20187;-55
2021/12/29 02:01:43;;;;;;;13.45;11.35;;;6.70;99.90;;;;;;5136480;27;20206;-55
2021/12/29 02:04:11;;;;;;;15.43;12.40;;;6.70;99.90;;;;;;5136231;27;20191;-55
2021/12/29 02:06:38;;;;;;;17.90;12.23;;;6.70;99.90;;;;;;5136255;27;20199;-55
2021/12/29 02:09:06;;;;;;;16.38;11.98;;;6.70;99.90;;;;;;5136237;27;20195;-56
2021/12/29 02:11:35;;;;;;;16.67;11.77;;;6.70;99.90;;;;;;5136180;27;20605;-56
2021/12/29 02:14:06;;;;;;;14.60;12.20;;;6.80;99.90;;;;;;5136048;27;20716;-55
2021/12/29 02:16:35;;;;;;;19.80;12.65;;;6.70;99.90;;;;;;5136485;27;20641;-53
2021/12/29 02:19:05;;;;;;;15.45;11.60;;;6.80;99.90;;;;;;5136183;27;20198;-54
2021/12/29 02:21:34;;;;;;;16.88;11.98;;;6.70;99.90;;;;;;5137581;27;20218;-55
2021/12/29 02:24:18;;;;;;;15.27;11.88;;;6.70;99.90;;;;;;5136053;27;20286;-55
2021/12/29 02:26:46;;;;;;;14.98;11.00;;;6.70;99.90;;;;;;5135876;27;20187;-56
2021/12/29 02:29:17;;;;;;;15.68;12.27;;;6.70;99.90;;;;;;5136198;27;20206;-54
2021/12/29 02:31:44;;;;;;;14.88;11.95;;;6.70;99.90;;;;;;5136156;27;20183;-54
2021/12/29 02:34:13;;;;;;;18.50;12.23;;;6.70;99.90;;;;;;5135634;27;20219;-54
2021/12/29 02:36:44;;;;;;;17.60;11.80;;;6.70;99.90;;;;;;5135737;27;20202;-55
2021/12/29 02:39:14;;;;;;;12.38;11.07;;;6.70;99.90;;;;;;5135691;27;20222;-55
2021/12/29 02:41:44;;;;;;;13.25;11.50;;;6.70;99.90;;;;;;5135823;27;20195;-56
2021/12/29 02:44:17;;;;;;;18.77;13.13;;;6.70;99.90;;;;;;5135760;27;20183;-54
2021/12/29 02:46:45;;;;;;;17.80;12.35;;;6.70;99.90;;;;;;5135285;27;20195;-54
2021/12/29 02:49:12;;;;;;;16.73;12.60;;;6.80;99.90;;;;;;5134684;27;20199;-54
2021/12/29 02:51:41;;;;;;;14.07;11.18;;;6.70;99.90;;;;;;5135640;27;20206;-54
2021/12/29 02:54:08;;;;;;;17.55;12.35;;;6.80;99.90;;;;;;5135114;27;20227;-55
2021/12/29 02:56:36;;;;;;;16.63;13.48;;;6.80;99.90;;;;;;5135186;27;20195;-54
2021/12/29 02:59:03;;;;;;;19.48;11.80;;;6.80;99.90;;;;;;5135539;27;20214;-54
2021/12/29 03:01:31;;;;;;;18.75;13.80;;;6.80;99.90;;;;;;5135421;27;20210;-54
2021/12/29 03:03:59;;;;;;;19.90;14.82;;;6.80;99.90;;;;;;5135128;27;20205;-54
2021/12/29 03:06:27;;;;;;;19.10;13.40;;;6.80;99.90;;;;;;5135227;27;20223;-54
2021/12/29 03:08:56;;;;;;;18.33;14.25;;;6.80;99.90;;;;;;5135015;27;20211;-54
2021/12/29 03:11:23;;;;;;;20.55;14.18;;;6.80;99.90;;;;;;5134874;27;20685;-54
2021/12/29 03:13:50;;;;;;;20.52;14.88;;;6.80;99.90;;;;;;5135227;27;20199;-54
2021/12/29 03:16:18;;;;;;;22.80;15.60;;;6.80;99.90;;;;;;5135042;27;20226;-54
2021/12/29 03:18:45;;;;;;;21.27;15.48;;;6.80;99.90;;;;;;5134788;27;20198;-54
2021/12/29 03:21:13;;;;;;;20.00;14.73;;;6.80;99.90;;;;;;5134721;27;20583;-54
2021/12/29 03:23:41;;;;;;;23.02;15.48;;;6.80;99.90;;;;;;5134682;27;20199;-56
2021/12/29 03:26:09;;;;;;;24.60;16.35;;;6.80;99.90;;;;;;5134454;27;20733;-54
2021/12/29 03:28:37;;;;;;;22.05;16.25;;;6.80;99.90;;;;;;5135450;27;20206;-54
2021/12/29 03:31:04;;;;;;;24.25;17.65;;;6.80;99.90;;;;;;5137620;27;20206;-54
2021/12/29 03:33:33;;;;;;;24.65;17.35;;;6.90;99.90;;;;;;5136253;27;20226;-54
2021/12/29 03:36:02;;;;;;;24.95;16.05;;;6.90;99.90;;;;;;5135630;27;20227;-54
2021/12/29 03:38:31;;;;;;;25.38;16.52;;;6.80;99.90;;;;;;5136920;27;20689;-54
2021/12/29 03:41:00;;;;;;;26.83;18.27;;;6.90;99.90;;;;;;5138551;27;20203;-56
2021/12/29 03:43:32;;;;;;;23.20;15.95;;;6.80;99.90;;;;;;5138553;27;20206;-55
2021/12/29 03:46:00;;;;;;;22.10;15.88;;;6.80;99.90;;;;;;5137990;27;20750;-55
2021/12/29 03:48:29;;;;;;;25.25;16.92;;;6.80;99.90;;;;;;5136382;27;20572;-54
2021/12/29 03:50:56;;;;;;;24.42;16.77;;;6.80;99.90;;;;;;5138727;27;20222;-54
2021/12/29 03:53:24;;;;;;;23.75;15.98;;;6.90;99.90;;;;;;5139251;27;20206;-54
2021/12/29 03:55:52;;;;;;;22.58;16.88;;;6.90;99.90;;;;;;5136644;27;20223;-55
2021/12/29 03:58:19;;;;;;;20.88;15.65;;;6.90;99.90;;;;;;5135027;27;20209;-54
2021/12/29 04:00:49;;;;;;;21.85;16.00;;;6.90;99.90;;;;;;5134470;27;20199;-54
2021/12/29 04:03:16;;;;;;;22.52;16.15;;;6.80;99.90;;;;;;5135406;27;20243;-54
2021/12/29 04:09:07;;;;;;;23.73;16.50;;;6.80;99.90;;;;;;5091503;27;20529;-54
2021/12/29 04:11:35;;;;;;;21.85;15.05;;;6.90;99.90;;;;;;5090877;28;20211;-54
2021/12/29 04:14:02;;;;;;;22.55;15.30;;;6.90;99.90;;;;;;5091150;28;20200;-54
2021/12/29 04:16:29;;;;;;;19.13;13.35;;;6.80;99.90;;;;;;5070728;28;20570;-54
2021/12/29 04:21:22;;;;;;;22.92;14.52;;;6.90;99.90;;;;;;5074270;22;20230;-61
2021/12/29 04:23:49;;;;;;;21.83;13.73;;;6.90;99.90;;;;;;5052437;28;20207;-61
2021/12/29 04:26:19;;;;;;;21.17;13.15;;;6.90;99.90;;;;;;5052444;28;20209;-61
2021/12/29 04:28:47;;;;;;;18.33;12.93;;;6.90;99.90;;;;;;5054781;28;20218;-61
2021/12/29 04:31:14;;;;;;;19.35;12.40;;;6.90;99.90;;;;;;5056505;28;20230;-61
2021/12/29 04:33:41;;;;;;;21.90;13.75;;;7.00;99.90;;;;;;5056705;28;20284;-62
2021/12/29 04:36:09;;;;;;;15.95;11.32;;;7.00;99.90;;;;;;5056600;28;20205;-61
2021/12/29 04:38:36;;;;;;;13.75;9.98;;;7.00;99.90;;;;;;5052163;28;20248;-60
2021/12/29 04:41:04;;;;;;;17.00;10.65;;;7.00;99.90;;;;;;5051457;28;20637;-61
2021/12/29 04:43:32;;;;;;;15.93;11.20;;;7.00;99.90;;;;;;5051364;28;20591;-61
2021/12/29 04:45:59;;;;;;;17.42;11.13;;;7.10;99.90;;;;;;5052170;28;20198;-61
2021/12/29 04:48:28;;;;;;;14.55;11.18;;;7.10;99.90;;;;;;5052657;28;20217;-60
2021/12/29 04:51:04;;;;;;;16.70;11.63;;;7.10;99.90;;;;;;5056133;28;20733;-61
2021/12/29 04:53:32;;;;;;;18.77;11.65;;;7.10;99.90;;;;;;5054174;28;20277;-61
2021/12/29 04:55:59;;;;;;;16.30;10.20;;;7.10;99.90;;;;;;5052200;28;20214;-61
2021/12/29 04:58:26;;;;;;;15.13;9.63;;;7.00;99.90;;;;;;5052794;28;20198;-61
2021/12/29 05:00:55;;;;;;;17.00;10.50;;;7.10;99.90;;;;;;5055951;28;20572;-61
2021/12/29 05:03:24;;;;;;;17.23;10.90;;;7.10;99.90;;;;;;5058972;28;20206;-61
2021/12/29 05:08:24;;;;;;;17.95;11.73;;;7.10;99.90;;;;;;5054838;28;20202;-60
2021/12/29 05:08:41;;;;;;;17.23;11.60;;;7.00;99.90;;;;;;5055438;28;20234;-62
2021/12/29 05:11:10;;;;;;;21.38;12.30;;;7.00;99.90;;;;;;5057362;28;20338;-60
2021/12/29 05:13:40;;;;;;;18.60;11.85;;;7.00;99.90;;;;;;5053182;28;20201;-61
2021/12/29 05:16:09;;;;;;;18.60;12.23;;;7.00;99.90;;;;;;5056081;28;20635;-61
2021/12/29 05:18:38;;;;;;;18.98;12.05;;;7.00;99.90;;;;;;5061723;28;20205;-61
2021/12/29 05:21:07;;;;;;;21.65;13.20;;;7.00;99.90;;;;;;5045269;28;20241;-61
2021/12/29 05:23:35;;;;;;;22.25;12.52;;;7.00;99.90;;;;;;5047502;28;20217;-61
2021/12/29 05:26:02;;;;;;;20.48;11.30;;;7.00;99.90;;;;;;5039649;28;20218;-61
2021/12/29 05:28:29;;;;;;;20.83;12.05;;;7.00;99.90;;;;;;5036616;28;20222;-62
2021/12/29 05:30:56;;;;;;;20.42;11.90;;;7.00;99.90;;;;;;5036065;28;20222;-61
2021/12/29 05:33:25;;;;;;;19.90;12.55;;;7.00;99.90;;;;;;5036072;28;20209;-61
2021/12/29 05:35:52;;;;;;;19.30;11.15;;;7.00;99.90;;;;;;5036261;28;20233;-61
2021/12/29 05:38:19;;;;;;;17.60;11.55;;;7.00;99.90;;;;;;5036180;28;20278;-62
2021/12/29 05:40:48;;;;;;;20.35;12.50;;;7.00;99.90;;;;;;5037312;28;20222;-61
2021/12/29 05:43:15;;;;;;;23.77;12.95;;;7.00;99.90;;;;;;5037422;28;20206;-62
2021/12/29 05:45:42;;;;;;;19.30;11.13;;;7.00;99.90;;;;;;5037909;28;20202;-61
2021/12/29 05:48:10;;;;;;;21.52;13.30;;;7.00;99.90;;;;;;5036629;28;20218;-61
2021/12/29 05:50:39;;;;;;;22.48;12.77;;;6.90;99.90;;;;;;5036238;28;20710;-61
2021/12/29 05:53:06;;;;;;;21.00;13.10;;;6.90;99.90;;;;;;5037137;28;20203;-61
2021/12/29 05:55:33;;;;;;;20.55;12.25;;;6.90;99.90;;;;;;5036676;28;20213;-61
2021/12/29 05:58:00;;;;;;;20.10;11.27;;;6.90;99.90;;;;;;5036223;28;20198;-60
2021/12/29 06:00:29;;;;;;;20.60;11.40;;;6.90;99.90;;;;;;5040594;28;20226;-61
2021/12/29 06:02:57;;;;;;;27.95;12.10;;;6.90;99.90;;;;;;5040901;28;20205;-60
2021/12/29 06:05:24;;;;;;;21.63;12.63;;;6.90;99.90;;;;;;5039411;28;20202;-59
2021/12/29 06:07:53;;;;;;;21.88;11.90;;;6.90;99.90;;;;;;5038514;28;20218;-60
2021/12/29 06:10:20;;;;;;;21.08;11.10;;;6.90;99.90;;;;;;5038124;28;20229;-61
2021/12/29 06:12:48;;;;;;;19.17;10.38;;;6.90;99.90;;;;;;5038843;28;20209;-60
2021/12/29 06:15:15;;;;;;;21.55;11.60;;;6.90;99.90;;;;;;5038793;28;20238;-60
2021/12/29 06:17:43;;;;;;;26.08;11.80;;;6.90;99.90;;;;;;5047016;28;20203;-60
2021/12/29 06:20:12;;;;;;;18.67;9.73;;;6.90;99.90;;;;;;5040961;28;20362;-60
2021/12/29 06:22:40;;;;;;;17.30;10.52;;;6.90;99.90;;;;;;5042924;28;20226;-60
2021/12/29 06:25:10;;;;;;;18.20;10.60;;;6.90;99.90;;;;;;5043179;28;20238;-60
2021/12/29 06:27:38;;;;;;;18.17;11.40;;;6.90;99.90;;;;;;5044202;28;20218;-60
2021/12/29 06:30:07;;;;;;;18.55;10.07;;;6.90;99.90;;;;;;5043767;28;20226;-60
2021/12/29 06:32:35;;;;;;;21.08;10.63;;;6.90;99.90;;;;;;5046311;28;20272;-59
2021/12/29 06:35:02;;;;;;;19.45;9.68;;;6.90;99.90;;;;;;5043151;28;20210;-60
2021/12/29 06:37:29;;;;;;;16.17;9.75;;;6.90;99.90;;;;;;5043261;28;20209;-61
2021/12/29 06:39:56;;;;;;;18.33;9.68;;;6.90;99.90;;;;;;5043042;28;20306;-61
2021/12/29 06:42:25;;;;;;;16.88;8.60;;;6.90;99.90;;;;;;5043435;28;20206;-59
2021/12/29 06:44:52;;;;;;;20.67;8.75;;;6.90;99.90;;;;;;5043480;28;20681;-60
2021/12/29 06:47:19;;;;;;;13.82;7.35;;;6.90;99.90;;;;;;5040286;28;20674;-60
2021/12/29 06:49:46;;;;;;;16.60;8.40;;;6.90;99.90;;;;;;5035931;28;20594;-60
2021/12/29 06:52:13;;;;;;;18.17;8.38;;;6.90;99.90;;;;;;5035836;28;20225;-60
2021/12/29 06:54:40;;;;;;;16.73;8.30;;;6.90;99.90;;;;;;5035715;28;20564;-60
2021/12/29 06:57:08;;;;;;;19.30;8.73;;;6.90;99.90;;;;;;5036445;28;20198;-60
2021/12/29 06:59:36;;;;;;;19.17;9.18;;;6.90;99.90;;;;;;5037155;28;20222;-60
2021/12/29 07:02:04;;;;;;;16.15;8.70;;;6.90;99.90;;;;;;5036719;28;20270;-60
2021/12/29 07:04:31;;;;;;;15.38;9.48;;;6.90;99.90;;;;;;5036134;28;20245;-60
2021/12/29 07:06:58;;;;;;;19.88;9.80;;;6.90;99.90;;;;;;5036850;28;20241;-61
2021/12/29 07:09:26;;;;;;;15.93;8.30;;;6.90;99.90;;;;;;5036161;28;20226;-61
2021/12/29 07:11:54;;;;;;;17.50;8.70;;;6.90;99.90;;;;;;5036589;28;20210;-61
2021/12/29 07:14:21;;;;;;;16.35;8.55;;;6.90;99.90;;;;;;5036614;28;20666;-61
2021/12/29 07:16:51;;;;;;;19.92;9.65;;;6.90;99.90;;;;;;5035280;28;20206;-63
2021/12/29 07:19:19;;;;;;;19.38;9.45;;;6.90;99.90;;;;;;5034293;28;20202;-61
2021/12/29 07:21:47;;;;;;;14.75;8.18;;;6.90;99.90;;;;;;5034532;28;20217;-61
2021/12/29 07:24:15;;;;;;;19.95;8.43;;;6.90;99.90;;;;;;5034440;28;20202;-60
2021/12/29 07:26:42;;;;;;;17.88;7.28;;;6.90;99.90;;;;;;5034240;28;20206;-61
2021/12/29 07:29:09;;;;;;;15.98;7.68;;;6.90;99.90;;;;;;5034565;28;20226;-62
2021/12/29 07:31:37;;;;;;;14.73;8.20;;;6.90;99.90;;;;;;5046947;28;20209;-61
2021/12/29 07:34:07;;;;;;;13.10;7.15;;;6.90;99.90;;;;;;5051879;28;20206;-61
2021/12/29 07:36:34;;;;;;;14.45;7.82;;;6.90;99.90;;;;;;5050742;28;20202;-62
2021/12/29 07:39:01;;;;;;;14.57;8.48;;;6.90;99.90;;;;;;5050569;28;20221;-61
2021/12/29 07:41:29;;;;;;;23.88;8.70;;;7.00;99.90;;;;;;5049954;28;20208;-62
2021/12/29 07:43:56;;;;;;;18.65;8.57;;;6.90;99.90;;;;;;5048149;28;20206;-61
2021/12/29 07:46:23;;;;;;;18.30;8.35;;;7.00;99.90;;;;;;5049850;28;20233;-61
2021/12/29 07:48:50;;;;;;;17.02;8.77;;;7.00;99.90;;;;;;5044025;28;20218;-61
2021/12/29 07:51:19;;;;;;;22.23;7.53;;;7.00;99.90;;;;;;5043313;28;20226;-62
2021/12/29 07:53:46;;;;;;;15.48;7.13;;;7.00;99.90;;;;;;5044452;28;20654;-61
2021/12/29 07:56:13;;;;;;;19.58;8.40;;;7.00;99.90;;;;;;5034753;28;20670;-61
2021/12/29 07:58:40;;;;;;;16.25;7.90;;;7.00;99.90;;;;;;5034918;28;20675;-62
2021/12/29 08:01:09;;;;;;;16.88;6.90;;;7.00;99.90;;;;;;5035062;28;20226;-60
2021/12/29 08:03:36;;;;;;;14.93;6.93;;;7.10;99.90;;;;;;5034225;28;20202;-61
2021/12/29 08:06:04;;;;;;;13.73;6.57;;;7.10;99.90;;;;;;5034164;28;20202;-61
2021/12/29 08:08:32;;;;;;;14.45;6.15;;;7.10;99.90;;;;;;5033756;28;20614;-60
2021/12/29 08:10:59;;;;;;;16.27;7.40;;;7.10;99.90;;;;;;5033325;28;20222;-62
2021/12/29 08:13:27;;;;;;;9.75;6.35;;;7.20;99.90;;;;;;5033399;28;20202;-61
2021/12/29 08:15:54;;;;;;;10.60;6.70;;;7.20;99.90;;;;;;5033569;28;20585;-61
2021/12/29 08:18:21;;;;;;;13.73;6.80;;;7.20;99.90;;;;;;5033824;28;20611;-60
2021/12/29 08:20:48;;;;;;;11.27;6.43;;;7.20;99.90;;;;;;5033545;28;20234;-61
2021/12/29 08:23:15;;;;;;;10.23;6.25;;;7.20;99.90;;;;;;5033380;28;20214;-61
2021/12/29 08:25:44;;;;;;;10.68;6.97;;;7.30;99.90;;;;;;5033612;28;20552;-60
2021/12/29 08:28:12;;;;;;;12.77;6.68;;;7.30;99.90;;;;;;5033108;28;20213;-61
2021/12/29 08:30:40;;;;;;;16.75;7.85;;;7.30;99.90;;;;;;5033175;28;20614;-60
2021/12/29 08:33:07;;;;;;;13.48;6.63;;;7.30;99.90;;;;;;5033026;28;20207;-62
2021/12/29 08:35:34;;;;;;;16.88;7.45;;;7.30;99.90;;;;;;5033495;28;20206;-61
2021/12/29 08:38:02;;;;;;;11.60;7.40;;;7.30;99.90;;;;;;5033441;28;20674;-61
2021/12/29 08:40:29;;;;;;;12.52;6.82;;;7.30;99.90;;;;;;5033011;28;20222;-62
2021/12/29 08:43:01;;;;;;;12.98;7.55;;;7.30;99.90;;;;;;5033351;28;20214;-62
2021/12/29 08:45:28;;;;;;;12.85;7.28;;;7.30;99.90;;;;;;5033258;28;20286;-61
2021/12/29 08:47:58;;;;;;;13.50;7.78;;;7.40;99.90;;;;;;5033290;28;20199;-62
2021/12/29 08:50:29;;;;;;;11.60;8.27;;;7.40;99.90;;;;;;5032784;28;20768;-61
2021/12/29 08:52:57;;;;;;;13.27;8.25;;;7.40;99.90;;;;;;5033474;28;20187;-62
2021/12/29 08:55:24;;;;;;;13.27;7.95;;;7.40;99.90;;;;;;5036076;28;20206;-61
2021/12/29 08:57:51;;;;;;;15.45;7.80;;;7.40;99.90;;;;;;5037517;28;20214;-62
2021/12/29 09:00:21;;;;;;;17.25;8.40;;;7.40;99.90;;;;;;5037179;28;20226;-61
2021/12/29 09:02:49;;;;;;;13.82;8.30;;;7.40;99.90;;;;;;5036817;28;20289;-61
2021/12/29 09:05:18;;;;;;;12.95;7.97;;;7.40;99.90;;;;;;5036856;28;20229;-62
2021/12/29 09:07:46;;;;;;;15.10;8.27;;;7.40;99.90;;;;;;5036661;28;20209;-61
2021/12/29 09:10:18;;;;;;;17.27;9.63;;;7.50;99.90;;;;;;5036712;28;20260;-61
2021/12/29 09:12:48;;;;;;;15.60;9.25;;;7.50;99.90;;;;;;5039647;28;20190;-61
2021/12/29 09:15:15;;;;;;;16.00;9.02;;;7.50;99.90;;;;;;5040488;28;20202;-61
2021/12/29 09:17:44;;;;;;;17.13;10.18;;;7.50;99.90;;;;;;5040785;28;20249;-63
2021/12/29 09:20:16;;;;;;;14.60;8.43;;;7.50;99.90;;;;;;5041087;28;20226;-61
2021/12/29 09:22:43;;;;;;;15.88;9.05;;;7.60;99.90;;;;;;5040710;28;20191;-61
2021/12/29 09:25:11;;;;;;;15.73;9.52;;;7.60;99.90;;;;;;5041340;28;20217;-61
2021/12/29 09:27:38;;;;;;;17.08;9.48;;;7.60;99.90;;;;;;5041333;28;20198;-61
2021/12/29 09:30:06;;;;;;;16.35;9.60;;;7.60;99.90;;;;;;5043847;28;20230;-61
2021/12/29 09:32:33;;;;;;;15.75;9.48;;;7.60;99.90;;;;;;5046466;28;20209;-61
2021/12/29 09:35:02;;;;;;;17.83;11.10;;;7.70;99.90;;;;;;5048644;28;20235;-61
2021/12/29 09:37:31;;;;;;;14.25;9.27;;;7.70;99.90;;;;;;5048857;28;20206;-61
2021/12/29 09:39:58;;;;;;;17.52;10.88;;;7.70;99.90;;;;;;5049040;28;20349;-61
2021/12/29 09:42:25;;;;;;;14.20;9.75;;;7.80;99.90;;;;;;5048023;28;20203;-61
2021/12/29 09:44:53;;;;;;;18.60;10.65;;;7.80;99.90;;;;;;5047055;28;20215;-62
2021/12/29 09:47:21;;;;;;;18.05;10.68;;;7.80;99.90;;;;;;5040725;28;20198;-61
2021/12/29 09:49:48;;;;;;;18.92;10.60;;;7.90;99.90;;;;;;5036799;28;20226;-61
2021/12/29 09:52:17;;;;;;;18.27;10.23;;;7.90;99.90;;;;;;5036070;28;20209;-62
2021/12/29 09:54:44;;;;;;;16.15;8.73;;;7.90;99.90;;;;;;5036304;28;20198;-60
2021/12/29 09:57:12;;;;;;;15.18;9.45;;;8.00;99.90;;;;;;5036047;28;20218;-61
2021/12/29 09:59:39;;;;;;;15.80;11.13;;;8.00;99.90;;;;;;5036792;28;20218;-62
2021/12/29 10:02:06;;;;;;;12.80;8.50;;;8.00;99.90;;;;;;5035701;28;20209;-61
2021/12/29 10:04:36;;;;;;;15.18;10.45;;;8.00;99.90;;;;;;5035210;28;20202;-61
2021/12/29 10:07:13;;;;;;;13.40;8.75;;;8.00;99.90;;;;;;5035676;28;20297;-60
2021/12/29 10:09:41;;;;;;;14.70;10.45;;;8.00;99.90;;;;;;5035927;28;20257;-62
2021/12/29 10:12:17;;;;;;;12.65;8.18;;;8.00;99.90;;;;;;5036434;28;20210;-61
2021/12/29 10:14:48;;;;;;;13.18;9.10;;;8.00;99.90;;;;;;5035167;28;20688;-61
2021/12/29 10:17:15;;;;;;;22.85;9.70;;;8.00;99.90;;;;;;5035627;28;20195;-61
2021/12/29 10:19:43;;;;;;;12.15;8.95;;;8.00;99.90;;;;;;5035195;28;20226;-61
2021/12/29 10:22:20;;;;;;;13.00;9.63;;;8.10;99.90;;;;;;5036275;28;20228;-61
2021/12/29 10:24:49;;;;;;;12.85;8.73;;;8.10;99.90;;;;;;5035607;28;20193;-61
2021/12/29 10:27:19;;;;;;;12.63;8.45;;;8.10;99.90;;;;;;5035381;28;20206;-61
2021/12/29 10:29:46;;;;;;;14.23;9.90;;;8.00;99.90;;;;;;5035251;28;20226;-61
2021/12/29 10:32:23;;;;;;;13.73;9.60;;;8.00;99.90;;;;;;5035005;28;20206;-62
2021/12/29 10:34:53;;;;;;;10.75;7.80;;;8.00;99.90;;;;;;5038639;28;20203;-60
2021/12/29 10:37:23;;;;;;;13.70;8.93;;;8.00;99.90;;;;;;5039974;28;20207;-60
2021/12/29 10:39:55;;;;;;;11.85;8.35;;;8.00;99.90;;;;;;5037742;28;20222;-61
2021/12/29 10:42:25;;;;;;;15.75;9.93;;;8.00;99.90;;;;;;5038230;28;20190;-60
2021/12/29 10:44:55;;;;;;;11.40;7.75;;;8.00;99.90;;;;;;5036034;28;20202;-60
2021/12/29 10:47:25;;;;;;;13.95;8.73;;;8.00;99.90;;;;;;5035819;28;20186;-61
2021/12/29 10:49:55;;;;;;;13.13;8.98;;;8.00;99.90;;;;;;5035129;28;20226;-61
2021/12/29 10:52:34;;;;;;;13.48;9.27;;;8.00;99.90;;;;;;5034803;28;20296;-60
2021/12/29 10:55:05;;;;;;;13.55;9.20;;;8.00;99.90;;;;;;5034934;28;20209;-61
2021/12/29 10:57:33;;;;;;;13.23;7.75;;;8.00;99.90;;;;;;5034803;28;20191;-62
2021/12/29 11:00:02;;;;;;;12.30;8.77;;;8.10;99.90;;;;;;5034273;28;20592;-61
2021/12/29 11:02:32;;;;;;;9.75;7.72;;;8.10;99.90;;;;;;5034368;28;20206;-60
2021/12/29 11:05:01;;;;;;;8.80;6.55;;;8.20;99.90;;;;;;5034997;28;20551;-61
2021/12/29 11:07:31;;;;;;;13.00;8.85;;;8.20;99.90;;;;;;5035153;28;20574;-62
2021/12/29 11:10:10;;;;;;;11.23;8.15;;;8.20;99.90;;;;;;5035020;28;20230;-61
2021/12/29 11:12:45;;;;;;;10.15;7.97;;;8.20;99.90;;;;;;5035301;28;20190;-61
2021/12/29 11:15:18;;;;;;;9.93;6.97;;;8.20;99.90;;;;;;5036653;28;20250;-61
2021/12/29 11:17:45;;;;;;;9.27;7.57;;;8.20;99.90;;;;;;5038588;28;20557;-61
2021/12/29 11:20:18;;;;;;;9.48;7.20;;;8.30;99.90;;;;;;5034476;28;20710;-62
2021/12/29 11:22:45;;;;;;;9.30;7.47;;;8.30;99.90;;;;;;5034826;28;20190;-61
2021/12/29 11:25:14;;;;;;;10.68;8.10;;;8.30;99.90;;;;;;5033988;28;20298;-62
2021/12/29 11:27:41;;;;;;;9.27;7.32;;;8.30;99.90;;;;;;5068116;22;20198;-57
2021/12/29 11:30:10;;;;;;;12.27;8.00;;;8.30;99.90;;;;;;5033534;28;20206;-56
2021/12/29 11:32:41;;;;;;;10.38;7.78;;;8.30;99.90;;;;;;5033300;28;20202;-56
2021/12/29 11:35:12;;;;;;;11.68;7.88;;;8.30;99.90;;;;;;5033471;28;20190;-56
2021/12/29 11:37:41;;;;;;;8.73;6.78;;;8.30;99.90;;;;;;5033920;28;20629;-57
2021/12/29 11:40:11;;;;;;;9.73;7.25;;;8.40;99.90;;;;;;5033239;28;20198;-57
2021/12/29 11:42:40;;;;;;;9.98;7.15;;;8.40;99.90;;;;;;5033510;28;20229;-56
2021/12/29 11:45:08;;;;;;;9.38;6.95;;;8.40;99.90;;;;;;5032841;28;20203;-54
2021/12/29 11:47:36;;;;;;;10.48;7.43;;;8.40;99.90;;;;;;5033098;28;20202;-56
2021/12/29 11:50:04;;;;;;;11.88;7.72;;;8.40;99.90;;;;;;5033610;28;20222;-56
2021/12/29 11:53:00;;;;;;;14.32;8.10;;;8.40;99.90;;;;;;5033081;28;20631;-56
2021/12/29 11:55:31;;;;;;;12.48;8.07;;;8.40;99.90;;;;;;5032943;28;20240;-56
2021/12/29 11:58:11;;;;;;;13.65;8.35;;;8.40;99.90;;;;;;5033209;28;20226;-56
2021/12/29 12:00:38;;;;;;;12.98;9.23;;;8.40;99.90;;;;;;5033110;28;20642;-56
2021/12/29 12:03:10;;;;;;;11.95;8.02;;;8.40;99.90;;;;;;5033197;28;20206;-56
2021/12/29 12:05:40;;;;;;;12.70;8.35;;;8.40;99.90;;;;;;5033211;28;20207;-56
2021/12/29 12:08:10;;;;;;;13.05;8.77;;;8.40;99.90;;;;;;5032850;28;20227;-56
2021/12/29 12:10:38;;;;;;;14.93;10.00;;;8.50;99.90;;;;;;5032677;28;20225;-57
2021/12/29 12:13:20;;;;;;;14.15;8.60;;;8.50;99.90;;;;;;5033387;28;20202;-56
2021/12/29 12:15:47;;;;;;;17.45;8.52;;;8.40;99.90;;;;;;5033124;28;20647;-57
2021/12/29 12:18:14;;;;;;;13.88;9.55;;;8.40;99.90;;;;;;5033093;28;20241;-58
2021/12/29 12:20:43;;;;;;;14.55;9.48;;;8.50;99.90;;;;;;5033187;28;20329;-58
2021/12/29 12:23:16;;;;;;;12.27;8.90;;;8.40;99.90;;;;;;5033229;28;20206;-58
2021/12/29 12:25:43;;;;;;;12.65;8.85;;;8.40;99.90;;;;;;5033567;28;20210;-57
2021/12/29 12:28:17;;;;;;;13.48;9.10;;;8.40;99.90;;;;;;5033159;28;20229;-58
2021/12/29 12:30:53;;;;;;;13.45;8.35;;;8.40;99.90;;;;;;5038064;28;20681;-57
2021/12/29 12:33:25;;;;;;;11.18;8.70;;;8.50;99.90;;;;;;5037121;28;20666;-57
2021/12/29 12:35:53;;;;;;;11.90;8.15;;;8.50;99.90;;;;;;5037522;28;20625;-56
2021/12/29 12:38:24;;;;;;;10.32;7.63;;;8.50;99.90;;;;;;5036555;28;20218;-57
2021/12/29 12:41:02;;;;;;;9.95;7.20;;;8.60;99.90;;;;;;5036639;28;20187;-55
2021/12/29 12:43:31;;;;;;;9.93;7.15;;;8.60;99.90;;;;;;5037148;28;20195;-58
2021/12/29 12:45:59;;;;;;;9.15;7.28;;;8.60;99.90;;;;;;5036644;28;20206;-56
2021/12/29 12:48:28;;;;;;;8.90;7.00;;;8.60;99.90;;;;;;5036592;28;20229;-56
2021/12/29 12:50:57;;;;;;;8.48;6.53;;;8.60;99.90;;;;;;5036555;28;20226;-57
2021/12/29 12:53:32;;;;;;;6.90;5.45;;;8.60;99.90;;;;;;5036628;28;20202;-55
2021/12/29 12:56:02;;;;;;;11.27;6.55;;;8.60;99.90;;;;;;5036992;28;20629;-56